createdAt,value
2018-09-06T00:01:03.624Z,6.40
2018-09-06T00:04:01.419Z,5.50
2018-09-06T00:06:59.048Z,5.97
2018-09-06T00:09:57.004Z,5.53
2018-09-06T00:12:54.435Z,6.10
2018-09-06T00:15:52.171Z,5.70
2018-09-06T00:18:49.767Z,5.93
2018-09-06T00:21:47.172Z,6.00
2018-09-06T00:24:45.742Z,5.17
2018-09-06T00:27:43.376Z,6.00
2018-09-06T00:30:40.985Z,5.80
2018-09-06T00:33:38.418Z,5.90
2018-09-06T00:36:36.064Z,5.57
2018-09-06T00:39:33.872Z,5.13
2018-09-06T00:42:31.552Z,5.00
2018-09-06T00:45:29.280Z,5.53
2018-09-06T00:48:27.060Z,5.63
2018-09-06T00:51:24.664Z,4.90
2018-09-06T00:54:22.362Z,4.80
2018-09-06T00:57:20.233Z,5.50
2018-09-06T01:00:17.958Z,5.77
2018-09-06T01:03:16.362Z,5.73
2018-09-06T01:06:14.130Z,5.40
2018-09-06T01:09:11.921Z,4.70
2018-09-06T01:12:09.781Z,4.93
2018-09-06T01:15:07.408Z,5.53
2018-09-06T01:18:05.233Z,5.23
2018-09-06T01:21:03.692Z,4.90
2018-09-06T01:24:02.387Z,4.90
2018-09-06T01:26:59.970Z,4.97
2018-09-06T01:29:57.686Z,4.57
2018-09-06T01:32:55.178Z,4.57
2018-09-06T01:35:58.757Z,4.60
2018-09-06T01:38:57.288Z,5.47
2018-09-06T01:41:55.650Z,4.53
2018-09-06T01:44:53.095Z,4.83
2018-09-06T01:47:50.948Z,4.53
2018-09-06T01:50:48.532Z,4.70
2018-09-06T01:53:48.466Z,4.23
2018-09-06T01:56:46.292Z,4.37
2018-09-06T01:59:44.889Z,4.73
2018-09-06T02:02:43.600Z,4.70
2018-09-06T02:05:44.444Z,5.17
2018-09-06T02:08:42.084Z,5.07
2018-09-06T02:11:40.080Z,5.30
2018-09-06T02:14:37.802Z,4.63
2018-09-06T02:17:35.342Z,5.13
2018-09-06T02:20:33.005Z,5.37
2018-09-06T02:23:30.966Z,4.80
2018-09-06T02:26:28.787Z,4.77
2018-09-06T02:29:26.475Z,5.60
2018-09-06T02:32:24.209Z,4.93
2018-09-06T02:35:22.080Z,4.53
2018-09-06T02:38:19.879Z,5.57
2018-09-06T02:41:17.695Z,5.40
2018-09-06T02:44:16.350Z,4.87
2018-09-06T02:47:14.117Z,5.20
2018-09-06T02:50:17.631Z,4.73
2018-09-06T02:53:15.351Z,5.67
2018-09-06T02:57:16.658Z,5.23
2018-09-06T03:00:14.348Z,5.47
2018-09-06T03:03:12.994Z,5.20
2018-09-06T03:06:10.573Z,5.60
2018-09-06T03:09:08.340Z,4.53
2018-09-06T03:12:10.133Z,5.07
2018-09-06T03:15:07.783Z,5.30
2018-09-06T03:18:05.458Z,5.17
2018-09-06T03:21:03.543Z,5.27
2018-09-06T03:24:00.845Z,5.43
2018-09-06T03:26:58.449Z,5.90
2018-09-06T03:29:56.227Z,5.27
2018-09-06T03:32:53.761Z,5.17
2018-09-06T03:35:51.386Z,4.80
2018-09-06T03:38:48.949Z,5.60
2018-09-06T03:41:46.526Z,5.80
2018-09-06T03:44:45.222Z,5.73
2018-09-06T03:47:43.014Z,5.00
2018-09-06T03:50:40.612Z,5.27
2018-09-06T03:53:38.280Z,5.10
2018-09-06T03:56:36.057Z,5.50
2018-09-06T03:59:33.786Z,5.33
2018-09-06T04:02:31.586Z,5.20
2018-09-06T04:05:29.219Z,5.10
2018-09-06T04:08:27.033Z,5.30
2018-09-06T04:11:24.861Z,6.00
2018-09-06T04:14:22.551Z,6.70
2018-09-06T04:17:20.130Z,5.37
2018-09-06T04:20:17.709Z,5.70
2018-09-06T04:23:15.356Z,5.60
2018-09-06T04:26:12.879Z,5.97
2018-09-06T04:29:10.635Z,4.70
2018-09-06T04:32:08.305Z,5.60
2018-09-06T04:35:06.038Z,6.00
2018-09-06T04:38:03.879Z,5.83
2018-09-06T04:41:01.410Z,5.23
2018-09-06T04:43:58.920Z,6.30
2018-09-06T04:46:56.766Z,5.57
2018-09-06T04:49:54.405Z,6.40
2018-09-06T04:52:52.062Z,6.13
2018-09-06T04:55:49.774Z,5.93
2018-09-06T04:58:47.628Z,7.13
2018-09-06T05:01:45.347Z,6.47
2018-09-06T05:04:42.990Z,6.93
2018-09-06T05:07:40.864Z,7.17
2018-09-06T05:10:38.561Z,7.00
2018-09-06T05:13:37.367Z,7.17
2018-09-06T05:16:35.256Z,7.20
2018-09-06T05:19:33.173Z,7.17
2018-09-06T05:22:31.181Z,6.90
2018-09-06T05:25:30.019Z,7.27
2018-09-06T05:28:27.825Z,7.73
2018-09-06T05:31:26.587Z,9.20
2018-09-06T05:34:24.254Z,7.87
2018-09-06T05:37:21.989Z,8.60
2018-09-06T05:40:19.633Z,8.47
2018-09-06T05:43:17.909Z,9.83
2018-09-06T05:46:16.246Z,9.30
2018-09-06T05:49:13.949Z,9.20
2018-09-06T05:52:11.502Z,8.50
2018-09-06T05:55:09.230Z,9.60
2018-09-06T05:58:06.853Z,8.43
2018-09-06T06:01:05.319Z,8.90
2018-09-06T06:04:03.031Z,10.37
2018-09-06T06:07:00.738Z,9.77
2018-09-06T06:09:58.342Z,10.43
2018-09-06T06:12:56.145Z,10.87
2018-09-06T06:15:53.933Z,9.57
2018-09-06T06:18:51.568Z,10.00
2018-09-06T06:21:50.127Z,8.83
2018-09-06T06:24:47.854Z,9.03
2018-09-06T06:27:45.617Z,9.50
2018-09-06T06:30:43.295Z,8.70
2018-09-06T06:33:42.930Z,9.63
2018-09-06T06:36:40.562Z,8.37
2018-09-06T06:39:38.270Z,7.57
2018-09-06T06:42:36.964Z,8.60
2018-09-06T06:45:34.731Z,7.33
2018-09-06T06:48:32.399Z,7.70
2018-09-06T06:51:30.128Z,8.10
2018-09-06T06:54:29.072Z,8.93
2018-09-06T06:57:27.227Z,23.40
2018-09-06T07:00:25.522Z,8.17
2018-09-06T07:03:23.286Z,7.93
2018-09-06T07:06:21.083Z,7.13
2018-09-06T07:09:20.767Z,8.30
2018-09-06T07:12:18.618Z,7.33
2018-09-06T07:15:16.303Z,8.13
2018-09-06T07:18:13.861Z,7.10
2018-09-06T07:21:11.335Z,8.07
2018-09-06T07:24:10.207Z,8.23
2018-09-06T07:27:08.911Z,7.40
2018-09-06T07:30:07.475Z,8.70
2018-09-06T07:33:05.058Z,8.50
2018-09-06T07:36:03.061Z,9.07
2018-09-06T07:39:00.466Z,7.23
2018-09-06T07:41:58.452Z,7.73
2018-09-06T07:44:57.047Z,7.87
2018-09-06T07:47:54.906Z,8.20
2018-09-06T07:50:52.417Z,7.30
2018-09-06T07:53:50.118Z,8.20
2018-09-06T07:56:47.860Z,8.03
2018-09-06T07:59:45.762Z,6.93
2018-09-06T08:02:43.487Z,7.97
2018-09-06T08:05:41.351Z,7.97
2018-09-06T08:08:38.969Z,7.30
2018-09-06T08:11:36.670Z,7.57
2018-09-06T08:14:34.248Z,6.73
2018-09-06T08:17:31.777Z,7.17
2018-09-06T08:20:29.569Z,6.37
2018-09-06T08:23:27.470Z,7.13
2018-09-06T08:26:25.310Z,7.03
2018-09-06T08:29:23.833Z,7.87
2018-09-06T08:32:22.627Z,7.47
2018-09-06T08:35:20.377Z,7.03
2018-09-06T08:38:18.123Z,7.17
2018-09-06T08:41:15.704Z,6.60
2018-09-06T08:44:13.435Z,7.10
2018-09-06T08:47:11.127Z,6.87
2018-09-06T08:50:09.270Z,5.87
2018-09-06T08:53:07.127Z,6.00
2018-09-06T08:56:04.999Z,6.10
2018-09-06T08:59:03.686Z,5.23
2018-09-06T09:02:03.856Z,7.10
2018-09-06T09:05:01.461Z,6.40
2018-09-06T09:07:59.134Z,5.63
2018-09-06T09:10:56.674Z,6.47
2018-09-06T09:13:54.351Z,5.97
2018-09-06T09:16:51.955Z,6.13
2018-09-06T09:19:49.660Z,6.83
2018-09-06T09:22:47.269Z,5.53
2018-09-06T09:25:44.968Z,5.53
2018-09-06T09:28:42.638Z,6.30
2018-09-06T09:31:41.307Z,6.10
2018-09-06T09:34:39.111Z,5.23
2018-09-06T09:37:36.981Z,4.87
2018-09-06T09:40:43.838Z,5.30
2018-09-06T09:43:41.522Z,4.90
2018-09-06T09:49:36.778Z,6.53
2018-09-06T09:52:34.280Z,5.43
2018-09-06T09:55:33.196Z,5.17
2018-09-06T09:58:30.742Z,5.23
2018-09-06T10:01:28.881Z,4.93
2018-09-06T10:04:32.970Z,5.33
2018-09-06T10:07:36.583Z,5.03
2018-09-06T10:10:34.199Z,5.27
2018-09-06T10:13:31.986Z,5.63
2018-09-06T10:16:30.434Z,4.63
2018-09-06T10:19:28.470Z,5.30
2018-09-06T10:22:26.199Z,5.50
2018-09-06T10:25:24.077Z,5.57
2018-09-06T10:28:22.565Z,5.83
2018-09-06T10:31:21.367Z,5.97
2018-09-06T10:34:19.179Z,5.43
2018-09-06T10:37:16.830Z,5.23
2018-09-06T10:40:14.744Z,5.60
2018-09-06T10:43:12.222Z,5.33
2018-09-06T10:46:09.787Z,7.13
2018-09-06T10:49:07.528Z,5.07
2018-09-06T10:52:05.250Z,5.13
2018-09-06T10:55:02.897Z,5.73
2018-09-06T10:58:00.864Z,5.13
2018-09-06T11:01:03.268Z,4.93
2018-09-06T11:04:02.312Z,5.27
2018-09-06T11:06:59.971Z,6.10
2018-09-06T11:09:57.741Z,5.60
2018-09-06T11:12:55.363Z,6.00
2018-09-06T11:15:54.255Z,5.60
2018-09-06T11:18:51.835Z,5.67
2018-09-06T11:21:49.452Z,5.40
2018-09-06T11:24:46.918Z,5.23
2018-09-06T11:27:45.413Z,5.63
2018-09-06T11:30:43.192Z,6.13
2018-09-06T11:33:40.776Z,5.60
2018-09-06T11:36:38.325Z,6.87
2018-09-06T11:39:35.791Z,5.90
2018-09-06T11:42:34.336Z,6.57
2018-09-06T11:45:31.930Z,5.73
2018-09-06T11:48:29.638Z,4.87
2018-09-06T11:51:27.550Z,5.17
2018-09-06T11:54:26.055Z,5.80
2018-09-06T11:57:23.677Z,6.13
2018-09-06T12:00:21.294Z,6.07
2018-09-06T12:03:21.221Z,5.93
2018-09-06T12:06:18.950Z,5.87
2018-09-06T12:09:16.723Z,7.33
2018-09-06T12:12:15.269Z,5.10
2018-09-06T12:15:13.761Z,6.33
2018-09-06T12:18:11.236Z,5.57
2018-09-06T12:21:09.505Z,5.07
2018-09-06T12:24:08.362Z,5.67
2018-09-06T12:27:06.057Z,5.83
2018-09-06T12:30:03.730Z,5.43
2018-09-06T12:33:02.484Z,5.03
2018-09-06T12:36:00.080Z,6.00
2018-09-06T12:38:57.970Z,4.97
2018-09-06T12:41:55.696Z,5.00
2018-09-06T12:44:53.602Z,4.93
2018-09-06T12:47:51.211Z,4.80
2018-09-06T12:50:48.820Z,4.50
2018-09-06T12:53:49.375Z,5.87
2018-09-06T12:56:47.063Z,6.83
2018-09-06T12:59:44.722Z,7.10
2018-09-06T13:02:42.373Z,5.30
2018-09-06T13:05:40.148Z,5.70
2018-09-06T13:08:37.653Z,5.87
2018-09-06T13:11:35.416Z,5.30
2018-09-06T13:14:34.240Z,5.20
2018-09-06T13:17:31.840Z,5.73
2018-09-06T13:20:32.389Z,5.83
2018-09-06T13:23:29.840Z,5.10
2018-09-06T13:26:27.623Z,4.93
2018-09-06T13:29:25.363Z,4.90
2018-09-06T13:32:23.044Z,4.90
2018-09-06T13:35:20.727Z,5.53
2018-09-06T13:38:18.615Z,4.90
2018-09-06T13:41:16.433Z,5.90
2018-09-06T13:44:14.266Z,6.60
2018-09-06T13:47:12.056Z,7.03
2018-09-06T13:50:09.821Z,6.40
2018-09-06T13:53:07.471Z,6.13
2018-09-06T13:56:05.227Z,5.17
2018-09-06T13:59:04.085Z,5.83
2018-09-06T14:02:01.671Z,5.93
2018-09-06T14:04:59.259Z,5.30
2018-09-06T14:07:57.015Z,6.67
2018-09-06T14:10:55.532Z,6.03
2018-09-06T14:13:53.375Z,7.27
2018-09-06T14:16:50.954Z,5.17
2018-09-06T14:19:48.949Z,5.33
2018-09-06T14:22:46.481Z,6.20
2018-09-06T14:25:44.315Z,6.13
2018-09-06T14:28:41.714Z,5.50
2018-09-06T14:31:39.587Z,5.50
2018-09-06T14:34:39.073Z,5.93
2018-09-06T14:37:36.777Z,6.03
2018-09-06T14:40:34.470Z,6.00
2018-09-06T14:43:32.198Z,6.87
2018-09-06T14:46:29.821Z,7.20
2018-09-06T14:49:27.606Z,5.87
2018-09-06T14:52:25.386Z,5.80
2018-09-06T14:55:24.178Z,6.03
2018-09-06T14:58:24.848Z,5.57
2018-09-06T15:01:22.715Z,5.67
2018-09-06T15:04:20.520Z,5.60
2018-09-06T15:07:18.124Z,5.30
2018-09-06T15:10:15.884Z,5.90
2018-09-06T15:13:13.531Z,5.60
2018-09-06T15:16:12.360Z,5.67
2018-09-06T15:19:11.080Z,4.83
2018-09-06T15:22:08.738Z,5.20
2018-09-06T15:25:06.219Z,6.63
2018-09-06T15:28:03.850Z,6.37
2018-09-06T15:31:01.617Z,5.77
2018-09-06T15:34:06.897Z,5.90
2018-09-06T15:37:04.928Z,5.73
2018-09-06T15:40:02.280Z,5.67
2018-09-06T15:43:00.847Z,5.27
2018-09-06T15:45:58.521Z,6.03
2018-09-06T15:48:56.048Z,5.27
2018-09-06T15:51:54.859Z,5.63
2018-09-06T15:54:55.558Z,5.80
2018-09-06T15:57:54.100Z,5.93
2018-09-06T16:00:54.123Z,5.57
2018-09-06T16:03:54.705Z,5.40
2018-09-06T16:06:53.373Z,5.33
2018-09-06T16:09:52.045Z,5.43
2018-09-06T16:12:49.504Z,6.27
2018-09-06T16:15:47.287Z,5.47
2018-09-06T16:18:45.047Z,5.70
2018-09-06T16:21:43.819Z,6.33
2018-09-06T16:24:41.726Z,5.70
2018-09-06T16:27:39.014Z,5.10
2018-09-06T16:30:38.210Z,5.73
2018-09-06T16:33:37.560Z,5.17
2018-09-06T16:36:35.270Z,6.30
2018-09-06T16:39:32.942Z,5.23
2018-09-06T16:42:30.589Z,4.83
2018-09-06T16:45:29.270Z,4.97
2018-09-06T16:48:27.900Z,5.17
2018-09-06T16:51:25.818Z,5.20
2018-09-06T16:54:24.443Z,5.90
2018-09-06T16:57:22.265Z,5.40
2018-09-06T17:00:20.808Z,5.60
2018-09-06T17:03:18.452Z,5.93
2018-09-06T17:06:16.056Z,5.27
2018-09-06T17:09:16.651Z,5.03
2018-09-06T17:12:14.251Z,5.50
2018-09-06T17:15:12.109Z,5.27
2018-09-06T17:18:09.944Z,5.77
2018-09-06T17:21:08.678Z,5.47
2018-09-06T17:24:07.645Z,6.63
2018-09-06T17:27:05.366Z,5.70
2018-09-06T17:30:03.995Z,5.57
2018-09-06T17:33:02.034Z,5.23
2018-09-06T17:35:59.835Z,7.80
2018-09-06T17:38:57.768Z,4.80
2018-09-06T17:41:55.539Z,5.93
2018-09-06T17:44:53.464Z,5.67
2018-09-06T17:47:51.385Z,6.07
2018-09-06T17:50:50.162Z,5.83
2018-09-06T17:53:48.138Z,5.87
2018-09-06T17:56:45.922Z,5.60
2018-09-06T17:59:43.642Z,6.57
2018-09-06T18:02:41.370Z,5.77
2018-09-06T18:05:39.547Z,6.43
2018-09-06T18:08:37.802Z,5.57
2018-09-06T18:11:36.770Z,6.40
2018-09-06T18:14:34.353Z,6.03
2018-09-06T18:17:32.162Z,6.27
2018-09-06T18:20:29.718Z,6.70
2018-09-06T18:23:27.512Z,6.37
2018-09-06T18:26:25.315Z,6.47
2018-09-06T18:29:22.972Z,10.60
2018-09-06T18:32:20.527Z,7.03
2018-09-06T18:35:18.391Z,6.50
2018-09-06T18:38:18.195Z,5.73
2018-09-06T18:41:15.874Z,6.50
2018-09-06T18:44:13.632Z,6.67
2018-09-06T18:47:11.221Z,6.27
2018-09-06T18:50:08.982Z,6.20
2018-09-06T18:53:06.843Z,6.17
2018-09-06T18:56:04.828Z,6.33
2018-09-06T18:59:02.652Z,6.10
2018-09-06T19:02:00.640Z,8.73
2018-09-06T19:04:58.363Z,7.90
2018-09-06T19:07:56.964Z,6.53
2018-09-06T19:10:54.848Z,6.67
2018-09-06T19:13:52.554Z,7.30
2018-09-06T19:16:50.301Z,6.83
2018-09-06T19:19:47.956Z,7.30
2018-09-06T19:22:45.640Z,6.20
2018-09-06T19:25:43.376Z,6.93
2018-09-06T19:28:41.251Z,6.93
2018-09-06T19:31:38.879Z,7.10
2018-09-06T19:34:36.706Z,9.47
2018-09-06T19:37:35.490Z,6.70
2018-09-06T19:40:33.195Z,6.97
2018-09-06T19:43:31.839Z,7.23
2018-09-06T19:46:30.420Z,6.03
2018-09-06T19:49:28.063Z,6.77
2018-09-06T19:52:25.841Z,6.67
2018-09-06T19:55:23.653Z,6.30
2018-09-06T19:58:21.075Z,7.03
2018-09-06T20:01:18.883Z,7.30
2018-09-06T20:04:16.554Z,6.67
2018-09-06T20:07:14.242Z,7.97
2018-09-06T20:10:12.956Z,7.00
2018-09-06T20:13:10.669Z,7.20
2018-09-06T20:16:08.437Z,6.03
2018-09-06T20:19:06.175Z,7.37
2018-09-06T20:22:04.186Z,7.97
2018-09-06T20:25:01.751Z,6.60
2018-09-06T20:27:59.413Z,7.77
2018-09-06T20:30:56.873Z,7.23
2018-09-06T20:33:54.643Z,6.77
2018-09-06T20:36:52.262Z,5.93
2018-09-06T20:39:50.102Z,6.27
2018-09-06T20:42:47.623Z,7.33
2018-09-06T20:45:45.340Z,6.83
2018-09-06T20:48:42.997Z,6.73
2018-09-06T20:51:40.992Z,6.63
2018-09-06T20:54:38.599Z,7.00
2018-09-06T20:57:36.614Z,6.63
2018-09-06T21:00:34.387Z,6.30
2018-09-06T21:03:32.130Z,6.70
2018-09-06T21:06:29.870Z,7.13
2018-09-06T21:09:28.685Z,6.53
2018-09-06T21:12:26.500Z,6.83
2018-09-06T21:15:25.672Z,6.67
2018-09-06T21:18:22.944Z,6.60
2018-09-06T21:21:20.672Z,6.07
2018-09-06T21:24:18.636Z,7.70
2018-09-06T21:27:16.275Z,6.67
2018-09-06T21:30:13.899Z,6.97
2018-09-06T21:33:11.753Z,6.43
2018-09-06T21:36:09.629Z,6.80
2018-09-06T21:39:07.315Z,6.80
2018-09-06T21:42:04.990Z,6.67
2018-09-06T21:45:02.445Z,6.37
2018-09-06T21:48:00.284Z,6.20
2018-09-06T21:50:57.918Z,5.87
2018-09-06T21:53:55.854Z,5.37
2018-09-06T21:56:53.367Z,6.80
2018-09-06T21:59:51.645Z,7.03
2018-09-06T22:02:55.431Z,6.30
2018-09-06T22:05:53.329Z,6.33
2018-09-06T22:08:50.986Z,5.90
2018-09-06T22:11:48.786Z,6.07
2018-09-06T22:14:46.708Z,6.47
2018-09-06T22:17:44.349Z,6.07
2018-09-06T22:20:43.141Z,5.40
2018-09-06T22:23:40.703Z,5.63
2018-09-06T22:26:38.566Z,5.47
2018-09-06T22:29:36.120Z,6.10
2018-09-06T22:32:33.870Z,5.97
2018-09-06T22:35:31.323Z,5.77
2018-09-06T22:38:29.102Z,5.53
2018-09-06T22:41:27.182Z,5.60
2018-09-06T22:44:24.710Z,5.77
2018-09-06T22:47:22.311Z,6.13
2018-09-06T22:50:19.990Z,6.13
2018-09-06T22:53:17.624Z,5.93
2018-09-06T22:56:15.248Z,5.87
2018-09-06T22:59:43.821Z,5.30
2018-09-06T23:02:47.392Z,5.03
2018-09-06T23:05:45.061Z,5.70
2018-09-06T23:08:42.820Z,6.43
2018-09-06T23:11:40.594Z,5.60
2018-09-06T23:14:38.263Z,5.73
2018-09-06T23:17:36.061Z,5.93
2018-09-06T23:20:33.899Z,6.00
2018-09-06T23:23:31.514Z,6.23
2018-09-06T23:26:29.103Z,6.17
2018-09-06T23:29:26.821Z,5.57
2018-09-06T23:32:24.585Z,5.77
2018-09-06T23:35:22.232Z,6.13
2018-09-06T23:38:19.902Z,5.53
2018-09-06T23:41:17.593Z,5.67
2018-09-06T23:44:15.184Z,5.80
2018-09-06T23:47:13.005Z,6.17
2018-09-06T23:50:10.470Z,5.43
2018-09-06T23:53:08.119Z,5.77
2018-09-06T23:56:05.983Z,5.40
2018-09-06T23:59:03.768Z,6.07
